Terminal Aerodrome Forecast
Issued by NWS Charleston, WV

Home | Current Version | Previous Version | Text Only | Print | Product List | Glossary On
Versions: 1 2 3 4 5 6 7 8 9 10 11 12 13 14 15 16 17 18 19 20 21 22 23 24 25 26 27
000
FTUS41 KRLX 031700 RRA
TAFBKW
TAF
KBKW 031753Z 0318/0418 16013G20KT P6SM OVC008
     FM040000 18009KT 5SM BR OVC008
     FM040600 22009KT 2SM -RA BR OVC005
     FM040800 23009KT 1SM -RA BR SCT001 OVC003
     FM041100 30006KT 1SM RA BR OVC003
     FM041400 31006KT 2SM +RA BR OVC004=

USA.gov is the U.S. government's official web portal to all federal, state and local government web resources and services.